Time;durP1;ratioP1;P1;durP2;ratioP2;P2;SDS_P1;SDS_P2;PMS_P1;PMS_P2;Temp;Humidity;BMP_temperature;BMP_pressure;BME280_temperature;BME280_humidity;BME280_pressure;Samples;Min_cycle;Max_cycle;Signal;HPM_P1;HPM_P2
2022/06/04 00:01:58;;;;;;;0.00;0.00;;;13.20;99.90;;;;;;5018381;28;20457;-72
2022/06/04 00:04:26;;;;;;;0.00;0.00;;;13.20;99.90;;;;;;5018303;28;20534;-72
2022/06/04 00:06:55;;;;;;;0.00;0.00;;;13.20;99.90;;;;;;5018095;28;20433;-74
2022/06/04 00:09:23;;;;;;;0.00;0.00;;;13.10;99.90;;;;;;5018186;28;20429;-74
2022/06/04 00:17:24;;;;;;;0.00;0.00;;;13.00;99.90;;;;;;5018045;28;20862;-72
2022/06/04 00:19:52;;;;;;;0.00;0.00;;;12.90;99.90;;;;;;5017850;28;20453;-74
2022/06/04 00:22:20;;;;;;;0.00;0.00;;;12.90;99.90;;;;;;5017598;28;20453;-73
2022/06/04 00:24:48;;;;;;;0.00;0.00;;;12.90;99.90;;;;;;5017691;28;20447;-72
2022/06/04 00:27:18;;;;;;;0.00;0.00;;;12.90;99.90;;;;;;5017530;28;20924;-74
2022/06/04 00:29:47;;;;;;;0.00;0.00;;;12.80;99.90;;;;;;5017661;28;20729;-72
2022/06/04 00:32:17;;;;;;;0.00;0.00;;;12.80;99.90;;;;;;5016543;28;20801;-72
2022/06/04 00:34:45;;;;;;;0.00;0.00;;;12.80;99.90;;;;;;5017717;28;20900;-73
2022/06/04 00:37:13;;;;;;;0.00;0.00;;;12.80;99.90;;;;;;5017247;28;20433;-74
2022/06/04 00:39:40;;;;;;;0.00;0.00;;;12.80;99.90;;;;;;5016570;28;20484;-74
2022/06/04 00:42:11;;;;;;;0.00;0.00;;;12.70;99.90;;;;;;5016759;28;20972;-74
2022/06/04 00:45:30;;;;;;;0.00;0.00;;;12.70;99.90;;;;;;5016935;28;20448;-73
2022/06/04 00:48:00;;;;;;;0.00;0.00;;;12.60;99.90;;;;;;5016845;28;20480;-74
2022/06/04 00:50:30;;;;;;;0.00;0.00;;;12.50;99.90;;;;;;5016923;28;20422;-73
2022/06/04 00:53:02;;;;;;;0.00;0.00;;;12.50;99.90;;;;;;5016643;27;20481;-72
2022/06/04 00:55:39;;;;;;;0.00;0.00;;;12.40;99.90;;;;;;5016520;28;20731;-73
2022/06/04 00:58:32;;;;;;;0.00;0.00;;;12.40;99.90;;;;;;5016377;28;20552;-73
2022/06/04 01:01:11;;;;;;;0.00;0.00;;;12.30;99.90;;;;;;5016485;28;20441;-72
2022/06/04 01:03:49;;;;;;;0.00;0.00;;;12.30;99.90;;;;;;5016567;28;20856;-73
2022/06/04 01:06:27;;;;;;;0.00;0.00;;;12.20;99.90;;;;;;5016643;28;20536;-71
2022/06/04 01:09:25;;;;;;;0.00;0.00;;;12.20;99.90;;;;;;5016591;28;20441;-73
2022/06/04 01:12:11;;;;;;;0.00;0.00;;;12.10;99.90;;;;;;5016025;28;20472;-71
2022/06/04 01:14:56;;;;;;;0.00;0.00;;;12.10;99.90;;;;;;5016511;28;20444;-72
2022/06/04 01:17:47;;;;;;;0.00;0.00;;;12.10;99.90;;;;;;5016273;28;20451;-73
2022/06/04 01:20:31;;;;;;;0.00;0.00;;;12.00;99.90;;;;;;5016089;28;20433;-72
2022/06/04 01:23:40;;;;;;;0.00;0.00;;;11.90;99.90;;;;;;5016433;28;20864;-74
2022/06/04 01:26:27;;;;;;;0.00;0.00;;;11.90;99.90;;;;;;5024077;28;20441;-72
2022/06/04 01:29:00;;;;;;;0.00;0.00;;;11.90;99.90;;;;;;5016618;28;20836;-74
2022/06/04 01:31:36;;;;;;;0.00;0.00;;;11.80;99.90;;;;;;5016108;28;20453;-74
2022/06/04 01:34:09;;;;;;;0.00;0.00;;;11.80;99.90;;;;;;5016171;28;20630;-74
2022/06/04 01:36:43;;;;;;;0.00;0.00;;;11.80;99.90;;;;;;5016024;28;20439;-72
2022/06/04 01:39:16;;;;;;;0.00;0.00;;;11.70;99.90;;;;;;5015775;28;21019;-72
2022/06/04 01:41:50;;;;;;;0.00;0.00;;;11.70;99.90;;;;;;5016262;28;21091;-72
2022/06/04 01:44:21;;;;;;;0.00;0.00;;;11.80;99.90;;;;;;5016803;28;20480;-72
2022/06/04 01:46:52;;;;;;;0.00;0.00;;;11.80;99.90;;;;;;5017487;28;20455;-73
2022/06/04 01:49:24;;;;;;;0.00;0.00;;;11.70;99.90;;;;;;5020544;28;20433;-74
2022/06/04 01:52:03;;;;;;;0.00;0.00;;;11.70;99.90;;;;;;5034799;28;20475;-73
2022/06/04 01:54:36;;;;;;;0.00;0.00;;;11.60;99.90;;;;;;5035723;28;20465;-71
2022/06/04 01:57:10;;;;;;;0.00;0.00;;;11.60;99.90;;;;;;5025544;28;20210;-73
2022/06/04 01:59:43;;;;;;;0.00;0.00;;;11.60;99.90;;;;;;5016615;28;21037;-74
2022/06/04 02:02:14;;;;;;;0.00;0.00;;;11.50;99.90;;;;;;5016790;28;20453;-74
2022/06/04 02:04:49;;;;;;;0.00;0.00;;;11.50;99.90;;;;;;5016521;28;20440;-74
2022/06/04 02:07:33;;;;;;;0.00;0.00;;;11.40;99.90;;;;;;5015825;28;20455;-73
2022/06/04 02:10:08;;;;;;;0.00;0.00;;;11.40;99.90;;;;;;5020674;28;20439;-73
2022/06/04 02:12:38;;;;;;;0.00;0.00;;;11.40;99.90;;;;;;5018077;28;20882;-73
2022/06/04 02:15:08;;;;;;;0.00;0.00;;;11.40;99.90;;;;;;5023363;28;20274;-72
2022/06/04 02:17:39;;;;;;;0.00;0.00;;;11.30;99.90;;;;;;5016894;28;20456;-73
2022/06/04 02:20:09;;;;;;;0.00;0.00;;;11.30;99.90;;;;;;5017599;28;20485;-73
2022/06/04 02:22:37;;;;;;;0.00;0.00;;;11.30;99.90;;;;;;5019576;28;20307;-73
2022/06/04 02:25:08;;;;;;;0.00;0.00;;;11.30;99.90;;;;;;5029936;28;20213;-73
2022/06/04 02:27:37;;;;;;;0.00;0.00;;;11.30;99.90;;;;;;5029676;28;20701;-72
2022/06/04 02:30:08;;;;;;;0.00;0.00;;;11.30;99.90;;;;;;5031826;27;20198;-72
2022/06/04 02:32:43;;;;;;;0.00;0.00;;;11.20;99.90;;;;;;5030535;28;20278;-74
2022/06/04 02:35:19;;;;;;;0.00;0.00;;;11.20;99.90;;;;;;5032807;28;20278;-75
2022/06/04 02:37:54;;;;;;;0.00;0.00;;;11.20;99.90;;;;;;5031218;28;20209;-73
2022/06/04 02:40:27;;;;;;;0.00;0.00;;;11.10;99.90;;;;;;5019483;28;20245;-73
2022/06/04 02:43:05;;;;;;;0.00;0.00;;;11.10;99.90;;;;;;5016820;28;20321;-73
2022/06/04 02:45:36;;;;;;;0.00;0.00;;;11.10;99.90;;;;;;5015547;28;20206;-74
2022/06/04 02:48:10;;;;;;;0.00;0.00;;;11.10;99.90;;;;;;5016439;28;20213;-72
2022/06/04 02:50:43;;;;;;;0.00;0.00;;;11.10;99.90;;;;;;5015885;28;20463;-72
2022/06/04 02:53:12;;;;;;;0.00;0.00;;;11.00;99.90;;;;;;5015848;28;20379;-73
2022/06/04 02:55:45;;;;;;;0.00;0.00;;;11.00;99.90;;;;;;5015074;28;20215;-72
2022/06/04 02:58:18;;;;;;;0.00;0.00;;;11.00;99.90;;;;;;5015513;28;20451;-70
2022/06/04 03:00:50;;;;;;;0.00;0.00;;;11.00;99.90;;;;;;5015245;28;20236;-71
2022/06/04 03:03:18;;;;;;;0.00;0.00;;;10.90;99.90;;;;;;5015106;28;20725;-73
2022/06/04 03:05:54;;;;;;;0.00;0.00;;;10.90;99.90;;;;;;5015722;28;20207;-72
2022/06/04 03:08:22;;;;;;;0.00;0.00;;;10.90;99.90;;;;;;5015255;28;20589;-76
2022/06/04 03:10:51;;;;;;;0.00;0.00;;;10.90;99.90;;;;;;5014995;28;20195;-74
2022/06/04 03:13:20;;;;;;;0.00;0.00;;;10.90;99.90;;;;;;5015335;28;20202;-74
2022/06/04 03:15:48;;;;;;;0.00;0.00;;;10.90;99.90;;;;;;5014758;28;20628;-76
2022/06/04 03:18:17;;;;;;;0.00;0.00;;;10.80;99.90;;;;;;5014693;28;20751;-77
2022/06/04 03:20:45;;;;;;;0.00;0.00;;;10.80;99.90;;;;;;5014715;28;20515;-76
2022/06/04 03:23:15;;;;;;;0.00;0.00;;;10.80;99.90;;;;;;5014977;28;20202;-76
2022/06/04 03:25:43;;;;;;;0.00;0.00;;;10.90;99.90;;;;;;5014514;28;20614;-72
2022/06/04 03:28:11;;;;;;;0.00;0.00;;;10.90;99.90;;;;;;5014796;28;20234;-75
2022/06/04 03:30:40;;;;;;;0.00;0.00;;;10.90;99.90;;;;;;5014742;28;20279;-71
2022/06/04 03:33:09;;;;;;;0.00;0.00;;;10.90;99.90;;;;;;5017937;28;20232;-73
2022/06/04 03:35:37;;;;;;;0.00;0.00;;;10.90;99.90;;;;;;5016166;28;20230;-74
2022/06/04 03:38:05;;;;;;;0.00;0.00;;;11.00;99.90;;;;;;5016703;28;20234;-75
2022/06/04 03:40:33;;;;;;;0.00;0.00;;;11.00;99.90;;;;;;5015845;27;20226;-75
2022/06/04 03:43:01;;;;;;;0.00;0.00;;;11.00;99.90;;;;;;5015759;28;20222;-75
2022/06/04 03:45:29;;;;;;;0.00;0.00;;;11.00;99.90;;;;;;5015640;27;20262;-75
2022/06/04 03:47:59;;;;;;;0.00;0.00;;;11.00;99.90;;;;;;5022818;28;20479;-76
2022/06/04 03:50:27;;;;;;;0.00;0.00;;;11.10;99.90;;;;;;5021350;28;20282;-76
2022/06/04 03:52:55;;;;;;;0.00;0.00;;;11.10;99.90;;;;;;5015338;28;20831;-75
2022/06/04 03:55:24;;;;;;;0.00;0.00;;;11.10;99.90;;;;;;5013955;27;20206;-74
2022/06/04 03:57:52;;;;;;;0.00;0.00;;;11.10;99.90;;;;;;5015118;28;20203;-74
2022/06/04 04:00:24;;;;;;;0.00;0.00;;;11.20;99.90;;;;;;5034051;28;20225;-75
2022/06/04 04:03:05;;;;;;;0.00;0.00;;;11.20;99.90;;;;;;5031108;28;20697;-75
2022/06/04 04:09:10;;;;;;;0.00;0.00;;;11.30;99.90;;;;;;5002196;27;21126;-74
2022/06/04 04:11:38;;;;;;;0.00;0.00;;;11.50;99.90;;;;;;5017693;28;20988;-75
2022/06/04 04:14:07;;;;;;;0.00;0.00;;;11.50;99.90;;;;;;5017808;28;20446;-75
2022/06/04 04:16:34;;;;;;;0.00;0.00;;;11.50;99.90;;;;;;5018144;28;20202;-75
2022/06/04 04:19:29;;;;;;;0.00;0.00;;;11.50;99.90;;;;;;5022062;28;20332;-76
2022/06/04 04:21:57;;;;;;;0.00;0.00;;;11.50;99.90;;;;;;5010816;28;20318;-75
2022/06/04 04:24:25;;;;;;;0.00;0.00;;;11.60;99.90;;;;;;5037072;28;20278;-75
2022/06/04 04:26:53;;;;;;;0.00;0.00;;;11.60;99.90;;;;;;5036901;28;20514;-76
2022/06/04 04:29:21;;;;;;;0.00;0.00;;;11.70;99.90;;;;;;5038468;28;20241;-75
2022/06/04 04:31:49;;;;;;;0.00;0.00;;;11.90;99.90;;;;;;5037519;28;20460;-74
2022/06/04 04:34:22;;;;;;;0.00;0.00;;;12.00;99.90;;;;;;5038284;27;20972;-76
2022/06/04 04:36:49;;;;;;;0.00;0.00;;;12.10;99.90;;;;;;5037792;28;21059;-75
2022/06/04 04:39:17;;;;;;;0.00;0.00;;;12.10;99.90;;;;;;5042736;28;21096;-76
2022/06/04 04:41:50;;;;;;;0.00;0.00;;;12.10;99.90;;;;;;5035416;28;20521;-74
2022/06/04 04:44:18;;;;;;;0.00;0.00;;;12.00;99.90;;;;;;5029505;28;20460;-75
2022/06/04 04:46:46;;;;;;;0.00;0.00;;;12.00;99.90;;;;;;5038911;28;21055;-74
2022/06/04 04:49:14;;;;;;;0.00;0.00;;;12.00;99.90;;;;;;5034147;27;20460;-74
2022/06/04 04:51:43;;;;;;;0.00;0.00;;;12.00;99.90;;;;;;5023913;28;20548;-74
2022/06/04 04:54:12;;;;;;;0.00;0.00;;;12.00;99.90;;;;;;5022706;28;20460;-75
2022/06/04 04:56:40;;;;;;;0.00;0.00;;;12.00;99.90;;;;;;5027007;28;20440;-72
2022/06/04 04:59:11;;;;;;;0.00;0.00;;;12.00;99.90;;;;;;5026313;28;20477;-71
2022/06/04 05:01:40;;;;;;;0.00;0.00;;;12.10;99.90;;;;;;5021991;28;20482;-72
2022/06/04 05:04:08;;;;;;;0.00;0.00;;;12.20;99.90;;;;;;5036903;28;20441;-73
2022/06/04 05:06:36;;;;;;;0.00;0.00;;;12.20;99.90;;;;;;5038319;28;20452;-74
2022/06/04 05:09:05;;;;;;;0.00;0.00;;;12.20;99.90;;;;;;5037731;27;20736;-73
2022/06/04 05:11:33;;;;;;;0.00;0.00;;;12.20;99.90;;;;;;5037601;28;20460;-72
2022/06/04 05:14:03;;;;;;;0.00;0.00;;;12.30;99.90;;;;;;5033415;28;20448;-70
2022/06/04 05:16:33;;;;;;;0.00;0.00;;;12.40;99.90;;;;;;5018232;28;20461;-70
2022/06/04 05:19:02;;;;;;;0.00;0.00;;;12.50;99.90;;;;;;5036622;28;20733;-71
2022/06/04 05:21:39;;;;;;;0.00;0.00;;;12.60;99.90;;;;;;5036584;28;20491;-72
2022/06/04 05:24:16;;;;;;;0.00;0.00;;;12.70;99.90;;;;;;5023741;27;20469;-73
2022/06/04 05:26:44;;;;;;;0.00;0.00;;;12.90;99.90;;;;;;5078646;27;20478;-73
2022/06/04 05:29:12;;;;;;;0.00;0.00;;;13.10;99.90;;;;;;5042042;28;20476;-71
2022/06/04 05:31:40;;;;;;;0.00;0.00;;;13.20;99.90;;;;;;5036640;28;20462;-70
2022/06/04 05:34:09;;;;;;;0.00;0.00;;;13.20;99.90;;;;;;5056724;28;20450;-71
2022/06/04 05:36:37;;;;;;;0.00;0.00;;;13.10;99.90;;;;;;5056416;27;20457;-73
2022/06/04 05:39:07;;;;;;;0.00;0.00;;;13.00;99.90;;;;;;5042170;28;20449;-71
2022/06/04 05:41:36;;;;;;;0.00;0.00;;;13.00;99.90;;;;;;5042756;28;20902;-72
2022/06/04 05:44:05;;;;;;;0.00;0.00;;;13.00;99.90;;;;;;5033373;28;20465;-72
2022/06/04 05:46:34;;;;;;;0.00;0.00;;;12.90;99.90;;;;;;5016048;28;20441;-71
2022/06/04 05:49:02;;;;;;;0.00;0.00;;;12.90;99.90;;;;;;5016358;28;20513;-71
2022/06/04 05:51:31;;;;;;;0.00;0.00;;;12.90;99.90;;;;;;5015972;28;20469;-72
2022/06/04 05:54:01;;;;;;;0.00;0.00;;;12.90;99.90;;;;;;5015973;28;20467;-71
2022/06/04 05:56:39;;;;;;;0.00;0.00;;;12.90;99.90;;;;;;5014881;28;20674;-71
2022/06/04 05:59:09;;;;;;;0.00;0.00;;;12.90;99.90;;;;;;5045424;28;20559;-71
2022/06/04 06:01:39;;;;;;;0.00;0.00;;;13.00;99.90;;;;;;5055338;28;20773;-71
2022/06/04 06:04:09;;;;;;;0.00;0.00;;;13.00;99.90;;;;;;5055545;28;20435;-73
2022/06/04 06:06:40;;;;;;;0.00;0.00;;;13.10;99.90;;;;;;5025505;27;20472;-73
2022/06/04 06:09:10;;;;;;;0.00;0.00;;;13.20;99.90;;;;;;5018641;28;20457;-71
2022/06/04 06:11:40;;;;;;;0.00;0.00;;;13.30;99.90;;;;;;5033959;28;20462;-72
2022/06/04 06:14:09;;;;;;;0.00;0.00;;;13.40;99.90;;;;;;5037073;28;20453;-73
2022/06/04 06:16:40;;;;;;;0.00;0.00;;;13.50;99.90;;;;;;5044265;27;20525;-73
2022/06/04 06:19:08;;;;;;;0.00;0.00;;;13.60;99.90;;;;;;5036439;28;20478;-73
2022/06/04 06:21:37;;;;;;;0.00;0.00;;;13.60;99.90;;;;;;5034525;28;21066;-74
2022/06/04 06:24:08;;;;;;;0.00;0.00;;;13.70;99.90;;;;;;5037106;28;21100;-73
2022/06/04 06:26:48;;;;;;;0.00;0.00;;;13.70;99.90;;;;;;5036034;28;20459;-73
2022/06/04 06:29:18;;;;;;;0.00;0.00;;;13.80;99.90;;;;;;5025299;27;20456;-75
2022/06/04 06:31:46;;;;;;;0.00;0.00;;;13.80;99.90;;;;;;5013029;28;20473;-74
2022/06/04 06:34:14;;;;;;;0.00;0.00;;;13.90;99.90;;;;;;5013813;28;20807;-73
2022/06/04 06:36:43;;;;;;;0.00;0.00;;;14.10;99.90;;;;;;5014002;28;20461;-75
2022/06/04 06:39:11;;;;;;;0.00;0.00;;;14.10;99.90;;;;;;5014144;28;20445;-73
2022/06/04 06:41:39;;;;;;;0.00;0.00;;;14.20;99.90;;;;;;5013909;28;20499;-74
2022/06/04 06:44:11;;;;;;;0.00;0.00;;;14.30;99.90;;;;;;5013681;28;20465;-75
2022/06/04 06:46:43;;;;;;;0.00;0.00;;;14.30;99.90;;;;;;5013957;28;20551;-73
2022/06/04 06:49:14;;;;;;;0.00;0.00;;;14.30;99.90;;;;;;5015621;27;20454;-73
2022/06/04 06:51:45;;;;;;;0.00;0.00;;;14.40;99.90;;;;;;5014568;28;20812;-75
2022/06/04 06:54:14;;;;;;;0.00;0.00;;;14.40;99.90;;;;;;5015004;28;20524;-75
2022/06/04 06:56:44;;;;;;;0.00;0.00;;;14.50;99.90;;;;;;5014997;28;20475;-75
2022/06/04 06:59:13;;;;;;;0.00;0.00;;;14.60;99.90;;;;;;5014530;27;20473;-75
2022/06/04 07:01:43;;;;;;;0.00;0.00;;;14.70;99.90;;;;;;5015063;28;20480;-76
2022/06/04 07:04:11;;;;;;;0.00;0.00;;;14.70;99.90;;;;;;5015430;28;20441;-75
2022/06/04 07:06:41;;;;;;;0.00;0.00;;;14.80;99.90;;;;;;5015242;28;20743;-75
2022/06/04 07:09:17;;;;;;;0.00;0.00;;;15.00;99.90;;;;;;5015006;28;20448;-75
2022/06/04 07:11:46;;;;;;;0.00;0.00;;;15.10;99.90;;;;;;5015339;28;21080;-74
2022/06/04 07:14:15;;;;;;;0.00;0.00;;;15.20;99.90;;;;;;5015299;28;20604;-74
2022/06/04 07:16:44;;;;;;;0.00;0.00;;;15.30;99.90;;;;;;5015264;28;20454;-74
2022/06/04 07:19:13;;;;;;;0.00;0.00;;;15.40;99.90;;;;;;5014839;28;20528;-73
2022/06/04 07:21:42;;;;;;;0.00;0.00;;;15.40;99.90;;;;;;5015004;28;20500;-75
2022/06/04 07:24:10;;;;;;;0.00;0.00;;;15.40;99.90;;;;;;5015003;28;20450;-73
2022/06/04 07:26:39;;;;;;;0.00;0.00;;;15.50;99.90;;;;;;5014807;28;20453;-75
2022/06/04 07:29:07;;;;;;;0.00;0.00;;;15.60;99.90;;;;;;5015130;28;20460;-75
2022/06/04 07:31:37;;;;;;;0.00;0.00;;;15.60;99.90;;;;;;5014981;28;20453;-75
2022/06/04 07:34:06;;;;;;;0.00;0.00;;;15.60;99.90;;;;;;5014777;28;20445;-75
2022/06/04 07:36:36;;;;;;;0.00;0.00;;;15.70;99.90;;;;;;5015060;28;20464;-75
2022/06/04 07:39:06;;;;;;;0.00;0.00;;;15.80;99.90;;;;;;5016557;28;20441;-75
2022/06/04 07:41:36;;;;;;;0.00;0.00;;;15.80;99.90;;;;;;5018054;28;20475;-75
2022/06/04 07:44:05;;;;;;;0.00;0.00;;;16.00;99.90;;;;;;5018443;28;20966;-75
2022/06/04 07:46:33;;;;;;;0.00;0.00;;;16.10;99.90;;;;;;5018615;28;20460;-75
2022/06/04 07:49:05;;;;;;;0.00;0.00;;;16.20;99.90;;;;;;5018202;28;20593;-75
2022/06/04 07:51:34;;;;;;;0.00;0.00;;;16.30;99.90;;;;;;5017916;28;20749;-75
2022/06/04 07:54:03;;;;;;;0.00;0.00;;;16.40;99.90;;;;;;5018273;28;20434;-75
2022/06/04 07:56:31;;;;;;;0.00;0.00;;;16.40;99.90;;;;;;5018988;28;20556;-76
2022/06/04 07:58:59;;;;;;;0.00;0.00;;;16.50;99.90;;;;;;5018562;28;21181;-74
2022/06/04 08:01:28;;;;;;;0.00;0.00;;;16.50;99.90;;;;;;5018471;28;20461;-73
2022/06/04 08:03:57;;;;;;;0.00;0.00;;;16.50;99.90;;;;;;5023051;28;20448;-75
2022/06/04 08:06:26;;;;;;;0.00;0.00;;;16.60;99.90;;;;;;5020065;28;20444;-75
2022/06/04 08:08:55;;;;;;;0.00;0.00;;;16.70;99.90;;;;;;5030028;28;20444;-75
2022/06/04 08:11:35;;;;;;;0.00;0.00;;;16.80;99.90;;;;;;5027542;28;20662;-72
2022/06/04 08:14:13;;;;;;;0.00;0.00;;;16.70;99.90;;;;;;5025852;28;20446;-75
2022/06/04 08:16:45;;;;;;;0.00;0.00;;;16.70;99.90;;;;;;5024474;28;20453;-74
2022/06/04 08:19:13;;;;;;;0.00;0.00;;;16.70;99.90;;;;;;5022552;28;20441;-74
2022/06/04 08:21:43;;;;;;;0.00;0.00;;;16.60;99.90;;;;;;5018666;28;20516;-75
2022/06/04 08:24:12;;;;;;;0.00;0.00;;;16.60;99.90;;;;;;5018269;28;20513;-73
2022/06/04 08:26:42;;;;;;;0.00;0.00;;;16.60;99.90;;;;;;5017888;28;20441;-75
2022/06/04 08:29:10;;;;;;;0.00;0.00;;;16.60;99.90;;;;;;5017970;28;21092;-75
2022/06/04 08:31:39;;;;;;;0.00;0.00;;;16.60;99.90;;;;;;5017805;28;20532;-74
2022/06/04 08:34:06;;;;;;;0.00;0.00;;;16.70;99.90;;;;;;5017519;28;20445;-74
2022/06/04 08:36:35;;;;;;;0.00;0.00;;;16.70;99.90;;;;;;5017324;28;21070;-75
2022/06/04 08:39:05;;;;;;;0.00;0.00;;;16.80;99.90;;;;;;5018945;28;20445;-74
2022/06/04 08:41:57;;;;;;;0.00;0.00;;;16.80;99.90;;;;;;5017568;28;20487;-74
2022/06/04 08:44:30;;;;;;;0.00;0.00;;;16.90;99.90;;;;;;5020141;28;20461;-75
2022/06/04 08:47:02;;;;;;;0.00;0.00;;;17.00;99.90;;;;;;5017667;28;20535;-74
2022/06/04 08:49:34;;;;;;;0.00;0.00;;;17.00;99.90;;;;;;5017144;28;20469;-74
2022/06/04 08:52:11;;;;;;;0.00;0.00;;;17.20;99.90;;;;;;5016497;28;20549;-74
2022/06/04 08:57:33;;;;;;;0.00;0.00;;;17.40;99.90;;;;;;5016065;28;20724;-74
2022/06/04 09:00:08;;;;;;;0.00;0.00;;;17.50;99.90;;;;;;5016813;28;20447;-74
2022/06/04 09:02:56;;;;;;;0.00;0.00;;;17.50;99.90;;;;;;5016914;28;20673;-74
2022/06/04 09:05:32;;;;;;;0.00;0.00;;;17.50;99.90;;;;;;5016608;28;20516;-74
2022/06/04 09:08:06;;;;;;;0.00;0.00;;;17.60;99.90;;;;;;5016785;28;20458;-74
2022/06/04 09:10:40;;;;;;;0.00;0.00;;;17.60;99.90;;;;;;5016572;28;20458;-74
2022/06/04 09:13:18;;;;;;;0.00;0.00;;;17.70;99.90;;;;;;5016759;28;20834;-74
2022/06/04 09:15:49;;;;;;;0.00;0.00;;;17.80;99.90;;;;;;5016555;28;20430;-75
2022/06/04 09:18:21;;;;;;;0.00;0.00;;;17.80;99.90;;;;;;5016525;28;20529;-75
2022/06/04 09:20:53;;;;;;;0.00;0.00;;;17.80;99.90;;;;;;5017135;28;20724;-73
2022/06/04 09:23:29;;;;;;;0.00;0.00;;;17.80;99.90;;;;;;5016604;28;20574;-74
2022/06/04 09:26:01;;;;;;;0.00;0.00;;;17.90;99.90;;;;;;5016255;28;20482;-73
2022/06/04 09:28:39;;;;;;;0.00;0.00;;;18.00;99.90;;;;;;5016611;28;20443;-73
2022/06/04 09:31:17;;;;;;;0.00;0.00;;;18.00;99.90;;;;;;5017271;28;20496;-75
2022/06/04 09:33:54;;;;;;;0.00;0.00;;;18.00;99.90;;;;;;5017033;28;20928;-73
2022/06/04 09:36:25;;;;;;;0.00;0.00;;;18.10;99.90;;;;;;5016845;28;20619;-74
2022/06/04 09:38:56;;;;;;;0.00;0.00;;;18.10;99.90;;;;;;5017152;28;20908;-73
2022/06/04 09:41:29;;;;;;;0.00;0.00;;;18.10;99.90;;;;;;5017425;28;20450;-73
2022/06/04 09:44:01;;;;;;;0.00;0.00;;;18.10;99.90;;;;;;5017251;28;20486;-73
2022/06/04 09:46:29;;;;;;;0.00;0.00;;;18.10;99.90;;;;;;5017086;28;20693;-73
2022/06/04 09:48:59;;;;;;;0.00;0.00;;;18.10;99.90;;;;;;5017146;28;20444;-73
2022/06/04 09:51:29;;;;;;;0.00;0.00;;;18.30;99.90;;;;;;5016535;28;20564;-73
2022/06/04 09:54:02;;;;;;;0.00;0.00;;;18.40;99.90;;;;;;5016686;28;20447;-73
2022/06/04 09:56:35;;;;;;;0.00;0.00;;;18.50;99.90;;;;;;5016430;28;20838;-73
2022/06/04 09:59:19;;;;;;;0.00;0.00;;;18.60;99.90;;;;;;5016697;28;21042;-73
2022/06/04 10:01:57;;;;;;;0.00;0.00;;;18.70;99.90;;;;;;5017166;28;20466;-73
2022/06/04 10:04:37;;;;;;;0.00;0.00;;;18.90;99.90;;;;;;5016726;28;20471;-74
2022/06/04 10:07:07;;;;;;;0.00;0.00;;;18.90;99.90;;;;;;5017211;28;20927;-74
2022/06/04 10:15:24;;;;;;;0.00;0.00;;;19.00;99.90;;;;;;5018363;28;20453;-74
2022/06/04 10:18:01;;;;;;;0.00;0.00;;;19.00;99.90;;;;;;5018822;28;20447;-75
2022/06/04 10:20:29;;;;;;;0.00;0.00;;;19.10;99.90;;;;;;5017269;28;20433;-74
2022/06/04 10:22:57;;;;;;;0.00;0.00;;;19.10;99.90;;;;;;5017417;28;21049;-75
2022/06/04 10:25:34;;;;;;;0.00;0.00;;;19.20;99.90;;;;;;5017498;28;20511;-74
2022/06/04 10:28:22;;;;;;;0.00;0.00;;;19.30;99.90;;;;;;5017527;28;20466;-74
2022/06/04 10:30:57;;;;;;;0.00;0.00;;;19.30;99.90;;;;;;5017444;28;20930;-73
2022/06/04 10:33:40;;;;;;;0.00;0.00;;;19.30;99.90;;;;;;5016256;28;20923;-75
2022/06/04 10:36:36;;;;;;;0.00;0.00;;;19.40;99.90;;;;;;5015394;28;20433;-73
2022/06/04 10:39:13;;;;;;;0.00;0.00;;;19.40;99.90;;;;;;5015870;28;20541;-73
2022/06/04 10:41:49;;;;;;;0.00;0.00;;;19.30;99.90;;;;;;5015311;28;20736;-73
2022/06/04 10:44:30;;;;;;;0.00;0.00;;;19.30;99.90;;;;;;5024442;28;20494;-74
2022/06/04 10:47:08;;;;;;;0.00;0.00;;;19.40;99.90;;;;;;5034486;27;20461;-73
2022/06/04 10:50:12;;;;;;;0.00;0.00;;;19.50;99.90;;;;;;5036152;28;20515;-73
2022/06/04 10:52:44;;;;;;;0.00;0.00;;;19.50;99.90;;;;;;5017159;28;20551;-73
2022/06/04 10:55:20;;;;;;;0.00;0.00;;;19.50;99.90;;;;;;5016390;28;20447;-75
2022/06/04 10:58:02;;;;;;;0.00;0.00;;;19.50;99.90;;;;;;5015544;28;20814;-74
2022/06/04 11:00:38;;;;;;;0.00;0.00;;;19.50;99.90;;;;;;5015304;28;20533;-73
2022/06/04 11:03:14;;;;;;;0.00;0.00;;;19.50;99.90;;;;;;5015514;28;20723;-73
2022/06/04 11:05:47;;;;;;;0.00;0.00;;;19.50;99.90;;;;;;5015332;28;20475;-73
2022/06/04 11:08:19;;;;;;;0.00;0.00;;;19.60;99.90;;;;;;5015312;28;20433;-74
2022/06/04 11:10:52;;;;;;;0.00;0.00;;;19.60;99.90;;;;;;5016313;28;20441;-74
2022/06/04 11:13:25;;;;;;;0.00;0.00;;;19.60;99.90;;;;;;5015577;28;20443;-74
2022/06/04 11:16:01;;;;;;;0.00;0.00;;;19.60;99.90;;;;;;5015523;28;20432;-74
2022/06/04 11:18:43;;;;;;;0.00;0.00;;;19.70;99.90;;;;;;5020231;28;20472;-76
2022/06/04 11:21:17;;;;;;;0.00;0.00;;;19.80;99.90;;;;;;5020026;28;20560;-74
2022/06/04 11:23:54;;;;;;;0.00;0.00;;;19.90;99.90;;;;;;5018924;28;20609;-74
2022/06/04 11:26:27;;;;;;;0.00;0.00;;;19.90;99.90;;;;;;5018661;28;20532;-74
2022/06/04 11:29:00;;;;;;;0.00;0.00;;;20.00;99.90;;;;;;5019266;27;20464;-72
2022/06/04 11:31:47;;;;;;;0.00;0.00;;;20.10;99.90;;;;;;5018723;28;20536;-73
2022/06/04 11:34:34;;;;;;;0.00;0.00;;;20.10;99.90;;;;;;5018204;28;20710;-73
2022/06/04 11:37:16;;;;;;;0.00;0.00;;;20.10;99.90;;;;;;5018294;28;20713;-74
2022/06/04 11:40:01;;;;;;;0.00;0.00;;;20.10;99.90;;;;;;5019460;28;20437;-73
2022/06/04 11:42:41;;;;;;;0.00;0.00;;;20.10;99.90;;;;;;5018711;28;20538;-73
2022/06/04 11:45:30;;;;;;;0.00;0.00;;;20.10;99.90;;;;;;5018061;28;20746;-73
2022/06/04 11:48:14;;;;;;;0.00;0.00;;;20.00;99.90;;;;;;5017592;28;20490;-73
2022/06/04 11:50:48;;;;;;;0.00;0.00;;;20.10;99.90;;;;;;5018368;28;21404;-74
2022/06/04 11:53:31;;;;;;;0.00;0.00;;;20.20;99.90;;;;;;5018325;27;20888;-73
2022/06/04 11:56:04;;;;;;;0.00;0.00;;;20.10;99.90;;;;;;5017987;28;20509;-73
2022/06/04 11:58:52;;;;;;;0.00;0.00;;;20.10;99.90;;;;;;5018169;28;20445;-75
2022/06/04 12:01:29;;;;;;;0.00;0.00;;;20.20;99.90;;;;;;5018198;28;20468;-74
2022/06/04 12:04:07;;;;;;;0.00;0.00;;;20.30;99.90;;;;;;5018131;28;20588;-73
2022/06/04 12:06:40;;;;;;;0.00;0.00;;;20.30;99.90;;;;;;5017877;28;20464;-74
2022/06/04 12:09:16;;;;;;;0.00;0.00;;;20.40;99.90;;;;;;5017855;28;20464;-73
2022/06/04 12:11:50;;;;;;;0.00;0.00;;;20.40;99.90;;;;;;5017819;28;20464;-74
2022/06/04 12:14:28;;;;;;;0.00;0.00;;;20.50;99.90;;;;;;5018138;28;20867;-75
2022/06/04 12:17:09;;;;;;;0.00;0.00;;;20.60;99.90;;;;;;5018032;28;20940;-73
2022/06/04 12:25:19;;;;;;;0.00;0.00;;;20.60;99.90;;;;;;5019309;28;20603;-74
2022/06/04 12:27:59;;;;;;;0.00;0.00;;;20.60;99.90;;;;;;5019009;28;20447;-74
2022/06/04 12:30:38;;;;;;;0.00;0.00;;;20.50;99.90;;;;;;5019056;28;20441;-73
2022/06/04 12:33:11;;;;;;;0.00;0.00;;;20.60;99.90;;;;;;5019201;28;20548;-73
2022/06/04 12:35:41;;;;;;;0.00;0.00;;;20.60;99.90;;;;;;5018516;28;20426;-73
2022/06/04 12:38:14;;;;;;;0.00;0.00;;;20.60;99.90;;;;;;5022884;28;20865;-74
2022/06/04 12:40:44;;;;;;;0.00;0.00;;;20.70;99.90;;;;;;5017749;28;20467;-74
2022/06/04 12:43:31;;;;;;;0.00;0.00;;;20.80;99.90;;;;;;5017727;28;20489;-72
2022/06/04 12:46:10;;;;;;;0.00;0.00;;;20.80;99.90;;;;;;5017844;28;20485;-72
2022/06/04 12:48:56;;;;;;;0.00;0.00;;;20.90;99.90;;;;;;5018036;28;20467;-74
2022/06/04 12:51:48;;;;;;;0.00;0.00;;;21.00;99.90;;;;;;5016932;28;20462;-74
2022/06/04 12:54:38;;;;;;;0.00;0.00;;;21.10;99.90;;;;;;5017198;28;20456;-73
2022/06/04 12:57:21;;;;;;;0.00;0.00;;;21.10;99.90;;;;;;5018310;27;20453;-73
2022/06/04 12:59:50;;;;;;;0.00;0.00;;;21.10;99.90;;;;;;5017017;28;20639;-72
2022/06/04 13:02:31;;;;;;;0.00;0.00;;;21.20;99.90;;;;;;5017018;28;20851;-73
2022/06/04 13:05:18;;;;;;;0.00;0.00;;;21.20;99.90;;;;;;5017075;28;20971;-74
2022/06/04 13:07:55;;;;;;;0.00;0.00;;;21.30;99.90;;;;;;5017075;28;20450;-74
2022/06/04 13:10:34;;;;;;;0.00;0.00;;;21.30;99.90;;;;;;5017784;28;20433;-73
2022/06/04 13:13:15;;;;;;;0.00;0.00;;;21.40;99.90;;;;;;5017467;28;20491;-73
2022/06/04 13:15:52;;;;;;;0.00;0.00;;;21.40;99.90;;;;;;5017672;28;20710;-74
2022/06/04 13:18:25;;;;;;;0.00;0.00;;;21.40;99.90;;;;;;5016939;28;20503;-73
2022/06/04 13:20:57;;;;;;;0.00;0.00;;;21.40;99.90;;;;;;5016708;28;20445;-72
2022/06/04 13:23:33;;;;;;;0.00;0.00;;;21.40;99.90;;;;;;5017155;28;20532;-73
2022/06/04 13:26:17;;;;;;;0.00;0.00;;;21.50;99.90;;;;;;5024456;28;20508;-74
2022/06/04 13:28:49;;;;;;;0.00;0.00;;;21.60;99.90;;;;;;5020123;28;21051;-74
2022/06/04 13:31:20;;;;;;;0.00;0.00;;;21.60;99.90;;;;;;5020346;28;20470;-73
2022/06/04 13:33:49;;;;;;;0.00;0.00;;;21.60;99.90;;;;;;5022256;28;20526;-74
2022/06/04 13:36:21;;;;;;;0.00;0.00;;;21.60;99.90;;;;;;5024318;28;20468;-74
2022/06/04 13:38:54;;;;;;;0.00;0.00;;;21.60;99.90;;;;;;5021509;28;20840;-74
2022/06/04 13:44:08;;;;;;;0.00;0.00;;;21.60;99.90;;;;;;5016097;27;20483;-74
2022/06/04 13:46:36;;;;;;;0.00;0.00;;;21.60;99.90;;;;;;5015305;28;20762;-74